Craig Municipal Airport
KCRG : now visible

Airfield :











YOU CAN JOIN US ON...

 
LOGIN :

Register | Disclaimer

   EN    FR    IT 

 









Legend :    VFR   Marginal VFR   IFR   Intensive IFR   Very Intensive IFR
Visi :
Ceiling :
>= 8 km
>= 3000ft
5 to 8 km
1000 to 3000 ft
1500m to 5 km
500 to 1000 ft
800 to 1500m
200 to 500 ft
< 800m
< 200 ft
Symbols :   Thunderstorms  Fog  Heavy snow  Heavy precipitations  Wind > 20 kt







- Airport Elevation : 41 ft


KCRG - Craig Municipal

CURRENT METAR :
  • 181853Z 21010KT 10SM CLR 33/23 A3007 RMK AO2 SLP180 T03330233

EXPIRED METARs :
  • 181753Z 17007KT 10SM FEW039 33/23 A3009 RMK AO2 SLP188 T03280233 10333 20239 58007
  • 181653Z 24004KT 10SM CLR 32/24 A3010 RMK AO2 SLP193 T03220239

TAF KCRG
Valid from the 18 at 18:00 until the 19 at 18:00 UTC


181721Z 1818/1918 17008KT P6SM VCTS BKN040CB BKN250
TEMPO 1819/1822 VRB15G25KT 3SM TSRA OVC035CB
FM190200 22004KT P6SM SCT040 SCT250
KZJX FIR / North America



MET'MAP, your aeronautical weather chart ! - Copyright ORBIFLY December 2007 - Disclaimer

ORBIFLY MET'MAP TEAM :

Programming & Development : Alexandra Zaïnal
Concept & Development : Baudouin d'Aumeries
Co-Development & Prog : Marc-Olivier Méhu
Technical & hardware support : Manuel Goepfert

Contact : metmap@orbifly.com




SOURCES & CREDITS :

   NOAA       Earth
Advisory